Time;durP1;ratioP1;P1;durP2;ratioP2;P2;SDS_P1;SDS_P2;PMS_P1;PMS_P2;Temp;Humidity;BMP_temperature;BMP_pressure;BME280_temperature;BME280_humidity;BME280_pressure;Samples;Min_cycle;Max_cycle;Signal;HPM_P1;HPM_P2
2022/09/18 00:00:49;;;;;;;5.23;2.33;;;13.00;98.40;;;;;;5080005;28;20460;-69
2022/09/18 00:03:16;;;;;;;7.53;2.60;;;13.00;98.50;;;;;;5079268;28;20500;-69
2022/09/18 00:05:43;;;;;;;7.53;2.83;;;13.00;98.50;;;;;;5079539;28;20970;-69
2022/09/18 00:08:10;;;;;;;6.90;2.30;;;13.00;98.70;;;;;;5080521;28;20450;-69
2022/09/18 00:10:41;;;;;;;2.90;2.17;;;12.90;98.70;;;;;;5079886;28;20450;-68
2022/09/18 00:13:09;;;;;;;6.23;2.40;;;13.00;98.80;;;;;;5080233;28;20490;-68
2022/09/18 00:15:36;;;;;;;7.50;2.20;;;13.00;98.70;;;;;;5079655;28;20448;-68
2022/09/18 00:18:03;;;;;;;7.77;1.87;;;13.00;98.80;;;;;;5079730;28;20453;-68
2022/09/18 00:20:30;;;;;;;9.20;2.20;;;13.00;98.80;;;;;;5079802;28;20454;-68
2022/09/18 00:22:57;;;;;;;10.70;2.23;;;13.00;98.90;;;;;;5079445;28;20488;-69
2022/09/18 00:25:24;;;;;;;4.77;1.90;;;13.00;98.80;;;;;;5079424;28;20452;-69
2022/09/18 00:27:52;;;;;;;9.17;2.77;;;13.00;98.80;;;;;;5079776;28;20534;-69
2022/09/18 00:30:19;;;;;;;4.70;2.37;;;13.00;98.90;;;;;;5079729;28;20796;-69
2022/09/18 00:32:46;;;;;;;7.80;2.30;;;13.00;98.90;;;;;;5079617;28;20493;-68
2022/09/18 00:35:12;;;;;;;6.50;2.47;;;13.10;99.00;;;;;;5079531;28;20475;-68
2022/09/18 00:37:39;;;;;;;6.60;2.13;;;13.00;98.90;;;;;;5079050;28;20522;-68
2022/09/18 00:40:06;;;;;;;5.27;2.33;;;13.00;98.80;;;;;;5078906;28;20466;-68
2022/09/18 00:42:33;;;;;;;2.97;2.00;;;13.00;98.80;;;;;;5079121;28;20495;-69
2022/09/18 00:45:02;;;;;;;4.20;2.13;;;13.00;98.70;;;;;;5079005;28;20820;-68
2022/09/18 00:47:32;;;;;;;7.17;2.07;;;13.00;98.80;;;;;;5079326;28;20539;-68
2022/09/18 00:50:07;;;;;;;4.87;1.90;;;13.00;98.80;;;;;;5078442;28;20457;-69
2022/09/18 00:52:43;;;;;;;5.87;2.00;;;13.00;98.90;;;;;;5077779;28;20464;-68
2022/09/18 00:55:11;;;;;;;3.50;1.40;;;13.00;98.90;;;;;;5078518;28;20444;-68
2022/09/18 00:57:41;;;;;;;3.37;1.67;;;13.00;98.90;;;;;;5078165;28;20452;-68
2022/09/18 01:00:11;;;;;;;6.87;1.80;;;13.00;98.80;;;;;;5078228;28;20965;-68
2022/09/18 01:02:39;;;;;;;6.70;2.53;;;13.00;98.90;;;;;;5078824;28;20500;-68
2022/09/18 01:05:07;;;;;;;5.90;1.53;;;13.00;99.00;;;;;;5077812;28;20950;-68
2022/09/18 01:07:47;;;;;;;4.40;1.53;;;13.00;98.90;;;;;;5078397;28;20460;-68
2022/09/18 01:10:27;;;;;;;3.73;1.70;;;13.00;98.80;;;;;;5078056;28;20439;-68
2022/09/18 01:12:56;;;;;;;5.13;1.20;;;13.00;98.80;;;;;;5078233;28;20508;-68
2022/09/18 01:15:33;;;;;;;2.00;1.03;;;13.00;98.50;;;;;;5077675;28;20456;-68
2022/09/18 01:18:07;;;;;;;6.20;1.30;;;13.00;98.40;;;;;;5078072;28;20467;-68
2022/09/18 01:21:03;;;;;;;2.20;1.10;;;13.00;98.40;;;;;;5078010;28;20432;-68
2022/09/18 01:24:01;;;;;;;4.27;1.10;;;13.10;98.30;;;;;;5071943;28;20531;-68
2022/09/18 01:26:45;;;;;;;3.93;1.43;;;13.10;98.40;;;;;;5051595;28;20462;-69
2022/09/18 01:29:23;;;;;;;3.70;1.30;;;13.10;98.30;;;;;;5077617;28;20447;-69
2022/09/18 01:31:54;;;;;;;3.03;1.60;;;13.00;98.20;;;;;;5077420;28;20448;-69
2022/09/18 01:34:26;;;;;;;3.10;1.60;;;13.00;98.30;;;;;;5078009;28;20483;-69
2022/09/18 01:36:58;;;;;;;2.00;1.30;;;13.00;98.30;;;;;;5080708;28;20436;-68
2022/09/18 01:39:30;;;;;;;3.23;1.27;;;13.00;98.50;;;;;;5080528;28;20437;-68
2022/09/18 01:41:58;;;;;;;4.20;1.37;;;12.90;98.60;;;;;;5079786;28;20498;-68
2022/09/18 01:44:30;;;;;;;1.93;1.13;;;13.00;98.60;;;;;;5080865;28;20475;-68
2022/09/18 01:47:00;;;;;;;8.93;1.33;;;12.90;99.10;;;;;;5081121;28;20428;-68
2022/09/18 01:49:38;;;;;;;8.13;2.20;;;12.90;98.90;;;;;;5080522;28;20445;-68
2022/09/18 01:52:10;;;;;;;4.43;2.13;;;12.90;99.00;;;;;;5080080;28;20500;-68
2022/09/18 01:54:40;;;;;;;3.77;2.50;;;12.90;99.20;;;;;;5083796;28;20452;-68
2022/09/18 01:57:12;;;;;;;4.97;2.83;;;12.90;99.40;;;;;;5097157;28;20408;-68
2022/09/18 01:59:44;;;;;;;3.87;3.27;;;12.90;99.50;;;;;;5099833;28;20427;-67
2022/09/18 02:02:18;;;;;;;9.10;3.30;;;12.90;99.70;;;;;;5097991;28;20464;-69
2022/09/18 02:04:47;;;;;;;6.87;3.40;;;12.90;99.80;;;;;;5084628;28;20442;-68
2022/09/18 02:07:24;;;;;;;6.17;3.67;;;12.90;99.70;;;;;;5083298;28;20449;-68
2022/09/18 02:09:50;;;;;;;4.17;3.60;;;12.90;99.80;;;;;;5084070;28;20609;-68
2022/09/18 02:12:23;;;;;;;8.87;3.67;;;12.90;99.80;;;;;;5081351;28;20457;-69
2022/09/18 02:14:55;;;;;;;6.70;4.00;;;13.00;99.90;;;;;;5082014;28;20432;-68
2022/09/18 02:17:26;;;;;;;8.67;4.97;;;12.90;99.80;;;;;;5081314;28;20436;-68
2022/09/18 02:19:58;;;;;;;6.83;4.50;;;12.90;99.90;;;;;;5084451;28;20471;-68
2022/09/18 02:22:29;;;;;;;6.70;4.50;;;12.90;99.90;;;;;;5080050;28;20491;-68
2022/09/18 02:24:58;;;;;;;5.30;4.90;;;12.90;99.90;;;;;;5080285;28;20440;-68
2022/09/18 02:27:27;;;;;;;7.60;6.00;;;12.90;99.90;;;;;;5079569;28;20860;-68
2022/09/18 02:29:56;;;;;;;9.37;5.57;;;12.90;99.90;;;;;;5082691;28;20452;-68
2022/09/18 02:32:23;;;;;;;7.57;6.00;;;12.90;99.90;;;;;;5083508;28;20454;-68
2022/09/18 02:34:50;;;;;;;10.93;6.10;;;12.90;99.90;;;;;;5083200;28;20466;-67
2022/09/18 02:37:32;;;;;;;7.80;6.00;;;12.90;99.90;;;;;;5083991;28;20462;-67
2022/09/18 02:40:14;;;;;;;6.13;5.53;;;12.90;99.90;;;;;;5083732;28;20443;-68
2022/09/18 02:42:47;;;;;;;5.60;5.13;;;12.90;99.90;;;;;;5084680;28;20492;-67
2022/09/18 02:45:25;;;;;;;6.23;5.23;;;12.80;99.90;;;;;;5084625;28;20440;-67
2022/09/18 02:48:05;;;;;;;5.47;4.67;;;12.90;99.90;;;;;;5082802;28;20441;-68
2022/09/18 02:50:40;;;;;;;7.37;5.33;;;12.90;99.90;;;;;;5084083;28;20432;-68
2022/09/18 02:53:13;;;;;;;5.80;5.20;;;12.90;99.90;;;;;;5081210;28;20886;-68
2022/09/18 02:55:46;;;;;;;5.77;5.10;;;12.90;99.90;;;;;;5081673;28;20443;-68
2022/09/18 02:58:18;;;;;;;6.37;5.03;;;12.90;99.90;;;;;;5081396;28;20451;-68
2022/09/18 03:00:48;;;;;;;5.63;4.50;;;12.90;99.90;;;;;;5080447;28;20827;-68
2022/09/18 03:03:16;;;;;;;6.27;4.67;;;12.90;99.90;;;;;;5079771;28;20486;-68
2022/09/18 03:05:44;;;;;;;8.43;4.77;;;12.90;99.90;;;;;;5079761;28;20451;-68
2022/09/18 03:08:11;;;;;;;6.27;4.50;;;12.90;99.90;;;;;;5079908;28;20457;-68
2022/09/18 03:10:38;;;;;;;4.77;3.30;;;12.90;99.90;;;;;;5080488;28;20468;-68
2022/09/18 03:13:05;;;;;;;7.70;4.13;;;12.90;99.90;;;;;;5080528;28;20465;-68
2022/09/18 03:15:32;;;;;;;7.07;3.90;;;12.90;99.90;;;;;;5083036;28;20460;-68
2022/09/18 03:18:00;;;;;;;6.30;4.00;;;12.90;99.90;;;;;;5082999;28;20961;-68
2022/09/18 03:20:27;;;;;;;7.47;3.53;;;12.80;99.90;;;;;;5082156;28;20989;-68
2022/09/18 03:22:54;;;;;;;4.90;3.30;;;12.90;99.90;;;;;;5082123;28;20488;-68
2022/09/18 03:25:20;;;;;;;5.70;3.70;;;12.90;99.90;;;;;;5082040;28;20463;-68
2022/09/18 03:27:47;;;;;;;5.20;3.20;;;12.90;99.90;;;;;;5080976;28;20460;-68
2022/09/18 03:30:14;;;;;;;3.83;3.20;;;12.90;99.90;;;;;;5079540;28;20957;-68
2022/09/18 03:32:41;;;;;;;4.47;2.60;;;12.90;99.90;;;;;;5079846;28;20887;-68
2022/09/18 03:35:09;;;;;;;3.63;3.03;;;12.80;99.90;;;;;;5079522;28;20443;-68
2022/09/18 03:37:36;;;;;;;4.93;2.40;;;12.80;99.90;;;;;;5080290;28;20841;-68
2022/09/18 03:40:03;;;;;;;6.70;2.30;;;12.80;99.90;;;;;;5082409;28;20462;-68
2022/09/18 03:42:30;;;;;;;3.60;2.23;;;12.80;99.90;;;;;;5081513;28;20484;-68
2022/09/18 03:44:57;;;;;;;3.87;2.47;;;12.90;99.90;;;;;;5080732;28;20466;-68
2022/09/18 03:47:24;;;;;;;4.67;2.00;;;12.80;99.90;;;;;;5081489;28;20454;-68
2022/09/18 03:49:51;;;;;;;2.57;2.10;;;12.80;99.90;;;;;;5078490;28;20451;-66
2022/09/18 03:52:19;;;;;;;7.10;2.40;;;12.90;99.90;;;;;;5077715;28;20458;-67
2022/09/18 03:54:46;;;;;;;6.37;2.63;;;12.90;99.90;;;;;;5082690;28;20454;-67
2022/09/18 03:57:13;;;;;;;6.40;2.70;;;13.00;99.90;;;;;;5082076;28;20456;-67
2022/09/18 03:59:39;;;;;;;7.57;3.23;;;13.00;99.90;;;;;;5081528;28;20449;-67
2022/09/18 04:02:06;;;;;;;4.10;3.07;;;12.90;99.90;;;;;;5082319;28;20463;-68
2022/09/18 04:04:33;;;;;;;7.50;3.63;;;12.90;99.90;;;;;;5081708;28;20437;-68
2022/09/18 04:06:59;;;;;;;7.33;3.40;;;12.90;99.90;;;;;;5081752;28;20543;-68
2022/09/18 04:09:27;;;;;;;5.00;3.70;;;12.90;99.90;;;;;;5087434;28;20865;-67
2022/09/18 04:11:54;;;;;;;6.40;4.00;;;12.90;99.90;;;;;;5087863;28;20447;-67
2022/09/18 04:14:21;;;;;;;4.27;3.93;;;12.90;99.90;;;;;;5085752;28;20474;-67
2022/09/18 04:16:48;;;;;;;6.30;5.23;;;12.90;99.90;;;;;;5084591;28;20460;-67
2022/09/18 04:19:15;;;;;;;6.20;4.97;;;12.90;99.90;;;;;;5084757;28;20470;-68
2022/09/18 04:21:42;;;;;;;6.40;4.83;;;12.80;99.90;;;;;;5082996;28;20455;-68
2022/09/18 04:24:08;;;;;;;7.30;6.07;;;12.80;99.90;;;;;;5082482;28;20495;-68
2022/09/18 04:26:37;;;;;;;8.23;5.73;;;12.90;99.90;;;;;;5082654;28;20459;-68
2022/09/18 04:29:04;;;;;;;7.17;5.60;;;12.80;99.90;;;;;;5082061;28;20463;-68
2022/09/18 04:31:31;;;;;;;5.87;5.40;;;12.80;99.90;;;;;;5082001;28;20462;-68
2022/09/18 04:33:58;;;;;;;6.03;5.40;;;12.80;99.90;;;;;;5081870;28;20457;-68
2022/09/18 04:36:25;;;;;;;10.67;5.60;;;12.90;99.90;;;;;;5079233;28;20797;-68
2022/09/18 04:38:51;;;;;;;6.43;5.50;;;12.90;99.90;;;;;;5081317;28;20463;-68
2022/09/18 04:41:18;;;;;;;8.80;5.40;;;12.90;99.90;;;;;;5080157;28;20444;-68
2022/09/18 04:43:46;;;;;;;8.53;5.27;;;12.80;99.90;;;;;;5080138;28;20487;-68
2022/09/18 04:46:13;;;;;;;9.17;5.10;;;12.80;99.90;;;;;;5081250;28;20441;-68
2022/09/18 04:48:40;;;;;;;10.90;4.43;;;12.80;99.90;;;;;;5081047;28;20444;-68
2022/09/18 04:51:08;;;;;;;5.83;4.97;;;12.80;99.90;;;;;;5081173;28;20488;-68
2022/09/18 04:53:36;;;;;;;4.87;3.83;;;12.80;99.90;;;;;;5080836;28;20482;-68
2022/09/18 04:56:03;;;;;;;9.17;3.57;;;12.80;99.90;;;;;;5079730;28;20463;-68
2022/09/18 04:58:30;;;;;;;4.27;3.53;;;12.80;99.90;;;;;;5078881;28;20456;-68
2022/09/18 05:00:58;;;;;;;7.20;3.50;;;12.80;99.90;;;;;;5079144;28;20466;-68
2022/09/18 05:03:25;;;;;;;6.33;3.40;;;12.80;99.90;;;;;;5079441;28;20499;-68
2022/09/18 05:05:53;;;;;;;3.20;2.60;;;12.80;99.90;;;;;;5078773;28;20458;-68
2022/09/18 05:08:20;;;;;;;4.53;3.20;;;12.80;99.90;;;;;;5079233;28;20547;-68
2022/09/18 05:10:47;;;;;;;6.03;2.70;;;12.80;99.90;;;;;;5079484;28;20452;-68
2022/09/18 05:13:14;;;;;;;6.37;1.87;;;12.90;99.90;;;;;;5079526;28;20460;-68
2022/09/18 05:15:40;;;;;;;3.70;1.93;;;12.80;99.90;;;;;;5079636;28;20455;-68
2022/09/18 05:18:10;;;;;;;3.80;2.30;;;12.90;99.90;;;;;;5079009;28;20452;-68
2022/09/18 05:20:37;;;;;;;5.47;2.03;;;12.80;99.90;;;;;;5079652;28;20436;-68
2022/09/18 05:23:05;;;;;;;6.83;1.93;;;12.80;99.90;;;;;;5079239;28;20495;-68
2022/09/18 05:25:32;;;;;;;3.10;1.73;;;12.90;99.90;;;;;;5080425;28;20546;-68
2022/09/18 05:28:01;;;;;;;6.77;2.53;;;12.80;99.90;;;;;;5079910;28;20439;-68
2022/09/18 05:30:28;;;;;;;6.90;2.23;;;12.90;99.90;;;;;;5077051;28;20455;-68
2022/09/18 05:33:00;;;;;;;6.17;2.33;;;12.90;99.90;;;;;;5078309;28;20468;-68
2022/09/18 05:35:30;;;;;;;4.27;2.30;;;12.90;99.90;;;;;;5077748;28;20489;-68
2022/09/18 05:37:57;;;;;;;4.33;2.10;;;12.90;99.90;;;;;;5077952;28;20450;-68
2022/09/18 05:40:29;;;;;;;5.90;2.83;;;12.90;99.90;;;;;;5078036;28;20452;-68
2022/09/18 05:42:57;;;;;;;2.50;1.90;;;12.90;99.90;;;;;;5077579;28;20577;-68
2022/09/18 05:45:24;;;;;;;6.43;2.30;;;12.90;99.90;;;;;;5076907;28;20464;-68
2022/09/18 05:47:55;;;;;;;4.43;2.50;;;12.90;99.90;;;;;;5077114;28;20443;-68
2022/09/18 05:50:22;;;;;;;3.00;2.07;;;12.90;99.90;;;;;;5077727;28;20433;-68
2022/09/18 05:52:58;;;;;;;4.23;1.93;;;12.90;99.90;;;;;;5077737;28;20467;-68
2022/09/18 05:55:25;;;;;;;3.90;2.17;;;13.00;99.90;;;;;;5077339;28;20474;-68
2022/09/18 05:57:53;;;;;;;8.53;2.30;;;12.90;99.90;;;;;;5076927;28;20435;-68
2022/09/18 06:00:20;;;;;;;4.23;2.20;;;12.90;99.90;;;;;;5076980;28;20482;-68
2022/09/18 06:02:54;;;;;;;7.83;1.87;;;13.00;99.90;;;;;;5078224;28;20979;-68
2022/09/18 06:05:20;;;;;;;7.87;2.37;;;13.00;99.90;;;;;;5078407;28;20438;-68
2022/09/18 06:07:47;;;;;;;6.40;2.13;;;13.00;99.90;;;;;;5077620;28;20466;-68
2022/09/18 06:10:16;;;;;;;6.47;2.13;;;13.10;99.90;;;;;;5077737;28;20467;-68
2022/09/18 06:12:43;;;;;;;5.00;2.17;;;13.10;99.90;;;;;;5077617;28;20917;-68
2022/09/18 06:15:10;;;;;;;7.60;3.60;;;13.20;99.90;;;;;;5078443;28;20450;-68
2022/09/18 06:17:37;;;;;;;6.87;2.00;;;13.10;99.90;;;;;;5078293;28;20463;-68
2022/09/18 06:20:05;;;;;;;3.23;1.87;;;13.20;99.90;;;;;;5077877;28;20490;-68
2022/09/18 06:22:32;;;;;;;4.50;1.87;;;13.20;99.90;;;;;;5077441;28;20471;-68
2022/09/18 06:24:59;;;;;;;3.87;1.97;;;13.20;99.90;;;;;;5077491;28;20510;-68
2022/09/18 06:27:27;;;;;;;5.03;2.20;;;13.20;99.90;;;;;;5076821;28;20460;-68
2022/09/18 06:29:54;;;;;;;8.43;3.10;;;13.20;99.90;;;;;;5076831;28;20433;-69
2022/09/18 06:32:21;;;;;;;4.43;2.30;;;13.20;99.90;;;;;;5077417;28;20452;-68
2022/09/18 06:34:48;;;;;;;7.73;3.50;;;13.20;99.90;;;;;;5076791;28;20423;-68
2022/09/18 06:37:15;;;;;;;7.63;3.03;;;13.30;99.90;;;;;;5077309;28;20510;-68
2022/09/18 06:39:42;;;;;;;5.03;3.03;;;13.30;99.90;;;;;;5076681;28;20545;-68
2022/09/18 06:42:09;;;;;;;11.40;2.97;;;13.30;99.90;;;;;;5076790;28;20447;-68
2022/09/18 06:44:37;;;;;;;9.23;3.60;;;13.40;99.90;;;;;;5075893;28;20483;-68
2022/09/18 06:47:04;;;;;;;3.40;2.87;;;13.40;99.90;;;;;;5076049;28;20463;-68
2022/09/18 06:49:31;;;;;;;4.67;2.67;;;13.40;99.90;;;;;;5076419;28;20448;-68
2022/09/18 06:51:57;;;;;;;5.70;3.30;;;13.40;99.90;;;;;;5076493;28;20442;-68
2022/09/18 06:54:24;;;;;;;6.53;2.70;;;13.50;99.90;;;;;;5078301;28;20467;-68
2022/09/18 06:56:51;;;;;;;4.17;2.17;;;13.50;99.90;;;;;;5083205;28;20479;-68
2022/09/18 06:59:18;;;;;;;8.60;3.40;;;13.50;99.90;;;;;;5081805;28;20450;-68
2022/09/18 07:01:46;;;;;;;7.63;3.43;;;13.40;99.90;;;;;;5082170;28;20447;-68
2022/09/18 07:04:13;;;;;;;6.93;3.80;;;13.50;99.90;;;;;;5074851;28;20514;-68
2022/09/18 07:06:40;;;;;;;4.47;2.60;;;13.50;99.90;;;;;;5076245;28;20448;-68
2022/09/18 07:09:06;;;;;;;4.10;2.80;;;13.40;99.90;;;;;;5075665;28;20454;-68
2022/09/18 07:11:35;;;;;;;7.80;2.80;;;13.50;99.90;;;;;;5075968;28;20459;-68
2022/09/18 07:14:05;;;;;;;6.30;2.90;;;13.50;99.90;;;;;;5076720;28;20476;-68
2022/09/18 07:16:31;;;;;;;6.80;2.53;;;13.50;99.90;;;;;;5078301;28;20903;-68
2022/09/18 07:18:59;;;;;;;5.23;2.10;;;13.60;99.90;;;;;;5079020;28;20455;-68
2022/09/18 07:21:26;;;;;;;4.97;1.90;;;13.70;99.90;;;;;;5079839;28;20832;-68
2022/09/18 07:23:53;;;;;;;5.10;2.20;;;13.80;99.90;;;;;;5079364;28;20487;-68
2022/09/18 07:26:19;;;;;;;5.33;2.13;;;13.80;99.90;;;;;;5078017;28;20457;-68
2022/09/18 07:28:46;;;;;;;4.67;2.10;;;13.80;99.90;;;;;;5078527;28;20433;-68
2022/09/18 07:31:13;;;;;;;8.27;2.20;;;13.80;99.90;;;;;;5076665;28;20451;-68
2022/09/18 07:33:40;;;;;;;6.70;2.20;;;13.90;99.70;;;;;;5076253;28;20994;-68
2022/09/18 07:36:08;;;;;;;7.73;2.47;;;13.90;99.60;;;;;;5076490;28;20461;-68
2022/09/18 07:38:35;;;;;;;2.87;1.90;;;14.00;99.80;;;;;;5076385;28;20963;-68
2022/09/18 07:41:03;;;;;;;6.03;2.60;;;14.10;99.60;;;;;;5080526;28;20492;-68
2022/09/18 07:43:30;;;;;;;10.50;2.60;;;14.20;99.30;;;;;;5080266;28;20474;-68
2022/09/18 07:45:57;;;;;;;2.87;1.60;;;14.20;99.20;;;;;;5079420;28;20452;-68
2022/09/18 07:48:24;;;;;;;8.93;1.97;;;14.20;99.10;;;;;;5079594;28;20457;-69
2022/09/18 07:50:50;;;;;;;5.27;2.20;;;14.30;98.70;;;;;;5078466;28;20460;-68
2022/09/18 07:53:19;;;;;;;3.70;1.87;;;14.20;98.70;;;;;;5078223;28;20539;-68
2022/09/18 07:55:46;;;;;;;5.70;2.27;;;14.20;98.40;;;;;;5078068;28;20458;-68
2022/09/18 07:58:14;;;;;;;5.70;1.90;;;14.30;98.70;;;;;;5077487;28;20970;-68
2022/09/18 08:00:40;;;;;;;3.90;1.90;;;14.20;98.70;;;;;;5077722;28;20800;-68
2022/09/18 08:03:10;;;;;;;7.20;2.33;;;14.20;98.60;;;;;;5080913;28;20462;-70
2022/09/18 08:05:38;;;;;;;5.57;1.60;;;14.30;98.50;;;;;;5077336;28;20524;-69
2022/09/18 08:08:05;;;;;;;4.77;1.40;;;14.40;98.30;;;;;;5077620;28;20467;-69
2022/09/18 08:10:34;;;;;;;5.30;1.83;;;14.40;98.00;;;;;;5077993;28;20546;-69
2022/09/18 08:13:02;;;;;;;5.13;2.00;;;14.40;97.90;;;;;;5077784;28;20477;-69
2022/09/18 08:15:29;;;;;;;6.10;1.50;;;14.50;98.30;;;;;;5077756;28;20435;-67
2022/09/18 08:17:56;;;;;;;2.30;1.17;;;14.50;98.00;;;;;;5077505;28;20455;-69
2022/09/18 08:20:23;;;;;;;1.70;1.33;;;14.50;97.40;;;;;;5079305;28;20575;-68
2022/09/18 08:22:50;;;;;;;7.77;2.90;;;14.40;97.60;;;;;;5076777;28;20986;-68
2022/09/18 08:25:17;;;;;;;6.37;2.70;;;14.40;97.70;;;;;;5081043;28;20518;-67
2022/09/18 08:27:45;;;;;;;5.70;2.60;;;14.40;98.40;;;;;;5084667;28;20963;-67
2022/09/18 08:30:14;;;;;;;3.57;3.10;;;14.40;98.70;;;;;;5082814;28;20447;-67
2022/09/18 08:32:40;;;;;;;4.20;2.40;;;14.40;98.90;;;;;;5081219;28;20479;-68
2022/09/18 08:35:08;;;;;;;4.33;2.57;;;14.40;98.50;;;;;;5078923;28;20846;-68
2022/09/18 08:37:34;;;;;;;7.47;2.47;;;14.40;98.90;;;;;;5079175;28;20437;-68
2022/09/18 08:40:02;;;;;;;4.07;2.60;;;14.60;99.10;;;;;;5081281;28;20456;-68
2022/09/18 08:42:36;;;;;;;8.00;2.43;;;14.70;99.10;;;;;;5082158;28;20483;-68
2022/09/18 08:45:21;;;;;;;3.50;2.60;;;15.00;98.20;;;;;;5081153;28;20475;-68
2022/09/18 08:47:53;;;;;;;4.23;2.77;;;15.10;97.80;;;;;;5077864;28;20498;-69
2022/09/18 08:50:23;;;;;;;4.00;2.90;;;15.10;96.90;;;;;;5076399;28;20471;-69
2022/09/18 08:52:55;;;;;;;4.00;2.30;;;15.10;96.50;;;;;;5076307;28;20472;-69
2022/09/18 08:55:26;;;;;;;2.60;2.40;;;15.10;96.60;;;;;;5076388;28;20440;-69
2022/09/18 08:57:56;;;;;;;5.20;2.53;;;15.10;97.10;;;;;;5076357;28;20933;-70
2022/09/18 09:00:29;;;;;;;3.80;2.30;;;15.10;96.40;;;;;;5076311;28;20453;-69
2022/09/18 09:03:03;;;;;;;3.70;2.53;;;15.10;96.60;;;;;;5076912;28;20484;-69
2022/09/18 09:05:35;;;;;;;3.80;2.07;;;15.00;96.70;;;;;;5076429;28;20479;-68
2022/09/18 09:08:22;;;;;;;4.97;2.20;;;15.00;97.30;;;;;;5077098;28;20452;-68
2022/09/18 09:10:59;;;;;;;7.17;2.00;;;14.80;97.30;;;;;;5076456;28;20925;-68
2022/09/18 09:13:55;;;;;;;4.60;2.03;;;14.70;97.50;;;;;;5076292;28;20986;-68
2022/09/18 09:16:32;;;;;;;7.00;1.90;;;14.60;98.30;;;;;;5076596;28;20487;-68
2022/09/18 09:19:01;;;;;;;4.20;1.83;;;14.60;98.10;;;;;;5076053;28;20561;-68
2022/09/18 09:21:45;;;;;;;2.77;1.80;;;14.50;98.50;;;;;;5076018;28;20455;-69
2022/09/18 09:24:25;;;;;;;4.03;1.77;;;14.40;99.00;;;;;;5075734;28;20517;-69
2022/09/18 09:26:54;;;;;;;2.20;2.00;;;14.50;99.20;;;;;;5076060;28;20451;-69
2022/09/18 09:29:27;;;;;;;4.73;1.83;;;14.50;98.90;;;;;;5075512;28;20988;-69
2022/09/18 09:31:59;;;;;;;3.53;1.80;;;14.70;99.40;;;;;;5075609;28;20856;-69
2022/09/18 09:34:31;;;;;;;5.47;1.70;;;15.00;99.00;;;;;;5075678;28;21039;-70
2022/09/18 09:37:02;;;;;;;3.40;1.90;;;15.20;98.60;;;;;;5075681;28;20807;-70
2022/09/18 09:39:35;;;;;;;7.30;1.77;;;15.40;98.10;;;;;;5075388;28;20449;-70
2022/09/18 09:42:07;;;;;;;4.80;1.80;;;15.60;97.70;;;;;;5075632;28;20808;-70
2022/09/18 09:44:37;;;;;;;3.00;1.80;;;15.80;96.60;;;;;;5075393;28;20529;-70
2022/09/18 09:47:21;;;;;;;3.33;1.50;;;15.80;95.00;;;;;;5075220;28;20429;-70
2022/09/18 09:49:56;;;;;;;5.50;2.23;;;15.70;94.80;;;;;;5075991;28;20802;-70
2022/09/18 09:52:25;;;;;;;2.67;1.77;;;15.50;94.00;;;;;;5075656;28;20506;-69
2022/09/18 09:54:57;;;;;;;3.43;1.70;;;15.30;94.60;;;;;;5075659;28;20451;-69
2022/09/18 09:57:31;;;;;;;5.37;3.80;;;15.20;95.00;;;;;;5076157;28;20796;-69
2022/09/18 10:00:06;;;;;;;2.30;2.10;;;15.10;95.60;;;;;;5075679;28;20526;-69
2022/09/18 10:02:50;;;;;;;3.03;1.73;;;15.10;94.50;;;;;;5075153;28;20475;-69
2022/09/18 10:05:24;;;;;;;2.70;1.33;;;15.10;94.30;;;;;;5075765;28;20468;-69
2022/09/18 10:08:00;;;;;;;5.10;1.80;;;15.10;95.20;;;;;;5075736;28;20535;-69
2022/09/18 10:10:35;;;;;;;2.23;1.60;;;15.00;94.80;;;;;;5075606;28;20482;-70
2022/09/18 10:13:06;;;;;;;4.30;1.47;;;15.00;94.40;;;;;;5075172;28;20471;-69
2022/09/18 10:15:38;;;;;;;2.30;1.73;;;15.00;94.90;;;;;;5075308;28;20436;-69
2022/09/18 10:18:13;;;;;;;2.23;1.70;;;14.90;94.80;;;;;;5075409;28;20851;-69
2022/09/18 10:20:41;;;;;;;2.80;2.00;;;14.80;94.80;;;;;;5075547;28;20432;-69
2022/09/18 10:23:15;;;;;;;2.33;1.97;;;14.80;94.80;;;;;;5074843;28;20472;-68
2022/09/18 10:25:48;;;;;;;2.40;1.90;;;14.80;94.70;;;;;;5074429;28;21013;-70
2022/09/18 10:28:16;;;;;;;3.00;1.97;;;14.80;94.70;;;;;;5074465;28;20461;-71
2022/09/18 10:31:02;;;;;;;5.60;1.73;;;14.80;94.70;;;;;;5074277;28;20434;-71
2022/09/18 10:33:44;;;;;;;5.40;2.50;;;14.70;94.80;;;;;;5074218;28;20472;-72
2022/09/18 10:36:23;;;;;;;2.60;2.07;;;14.70;94.80;;;;;;5074157;28;20427;-71
2022/09/18 10:38:51;;;;;;;3.50;2.03;;;14.70;94.50;;;;;;5074476;28;20506;-69
2022/09/18 10:41:44;;;;;;;4.73;2.00;;;14.70;94.80;;;;;;5073910;28;20998;-68
2022/09/18 10:44:24;;;;;;;2.17;1.67;;;14.60;94.90;;;;;;5059326;28;20518;-68
2022/09/18 10:46:55;;;;;;;1.80;1.60;;;14.60;96.00;;;;;;5074214;28;20447;-70
2022/09/18 10:49:27;;;;;;;2.60;1.80;;;14.50;95.90;;;;;;5074911;28;20432;-69
2022/09/18 10:52:26;;;;;;;2.00;1.67;;;14.60;95.60;;;;;;5075718;28;20433;-69
2022/09/18 10:55:01;;;;;;;3.60;1.80;;;14.60;95.90;;;;;;5075424;28;20439;-68
2022/09/18 10:57:30;;;;;;;3.83;1.83;;;14.70;96.50;;;;;;5075186;28;20458;-68
2022/09/18 10:59:57;;;;;;;2.37;1.67;;;14.80;95.80;;;;;;5074763;28;20454;-68
2022/09/18 11:02:26;;;;;;;3.53;1.93;;;14.90;95.90;;;;;;5075531;28;20453;-68
2022/09/18 11:04:55;;;;;;;5.93;2.13;;;15.00;95.70;;;;;;5075951;28;20472;-69
2022/09/18 11:07:23;;;;;;;2.23;1.87;;;15.00;94.70;;;;;;5075050;28;20466;-69
2022/09/18 11:09:50;;;;;;;3.70;2.10;;;15.00;95.00;;;;;;5075371;28;20456;-69
2022/09/18 11:12:20;;;;;;;3.83;1.87;;;15.00;95.20;;;;;;5076012;28;20456;-68
2022/09/18 11:14:51;;;;;;;2.07;1.87;;;15.00;95.00;;;;;;5077239;28;20444;-68
2022/09/18 11:17:24;;;;;;;2.23;1.80;;;15.10;95.20;;;;;;5078968;28;20483;-68
2022/09/18 11:19:52;;;;;;;5.90;2.20;;;15.00;94.80;;;;;;5079042;28;20475;-68
2022/09/18 11:22:33;;;;;;;3.53;1.93;;;15.10;95.40;;;;;;5080177;28;20831;-68
2022/09/18 11:25:15;;;;;;;2.80;2.20;;;15.10;95.70;;;;;;5081034;28;20472;-68
2022/09/18 11:27:47;;;;;;;5.57;1.67;;;15.10;96.30;;;;;;5080308;28;20432;-68
2022/09/18 11:30:19;;;;;;;4.77;1.70;;;15.10;96.40;;;;;;5080552;28;20458;-68
2022/09/18 11:32:47;;;;;;;3.33;2.60;;;15.10;96.80;;;;;;5081585;28;20464;-68
2022/09/18 11:35:16;;;;;;;3.40;2.10;;;15.20;96.30;;;;;;5081450;28;20443;-68
2022/09/18 11:37:50;;;;;;;4.00;2.50;;;15.20;95.70;;;;;;5083106;28;20528;-69
2022/09/18 11:40:21;;;;;;;4.47;2.70;;;15.20;95.20;;;;;;5082765;28;20437;-69
2022/09/18 11:42:49;;;;;;;7.47;2.40;;;15.30;95.90;;;;;;5082840;28;20472;-69
2022/09/18 11:45:39;;;;;;;2.00;1.80;;;15.30;94.90;;;;;;5081246;28;20490;-68
2022/09/18 11:48:17;;;;;;;7.50;2.20;;;15.40;94.70;;;;;;5081747;28;20459;-68
2022/09/18 11:50:45;;;;;;;2.53;1.80;;;15.50;94.30;;;;;;5079274;28;20440;-68
2022/09/18 11:53:17;;;;;;;2.83;2.00;;;15.50;94.00;;;;;;5077697;28;21009;-69
2022/09/18 11:55:48;;;;;;;3.43;2.60;;;15.70;93.40;;;;;;5077948;28;20432;-69
2022/09/18 11:58:20;;;;;;;3.60;2.10;;;15.70;93.40;;;;;;5077819;28;20977;-69
2022/09/18 12:00:51;;;;;;;3.83;2.17;;;15.70;93.10;;;;;;5078240;28;20444;-69
2022/09/18 12:03:22;;;;;;;7.00;3.20;;;15.80;92.70;;;;;;5078796;28;20577;-69
2022/09/18 12:05:55;;;;;;;3.80;2.10;;;15.90;92.90;;;;;;5078026;28;20884;-69
2022/09/18 12:08:34;;;;;;;2.90;1.70;;;16.10;91.70;;;;;;5078518;28;20444;-69
2022/09/18 12:11:09;;;;;;;2.97;2.20;;;16.20;92.20;;;;;;5077493;28;20435;-69
2022/09/18 12:13:48;;;;;;;2.93;1.60;;;16.30;91.70;;;;;;5081321;28;20475;-71
2022/09/18 12:16:20;;;;;;;3.47;1.90;;;16.30;91.20;;;;;;5083530;28;20916;-70
2022/09/18 12:18:53;;;;;;;5.37;2.27;;;16.30;91.70;;;;;;5077040;28;20468;-70
2022/09/18 12:21:30;;;;;;;2.43;1.90;;;16.10;91.80;;;;;;5077608;28;20443;-71
2022/09/18 12:23:58;;;;;;;3.47;2.50;;;15.90;92.40;;;;;;5082667;28;20474;-69
2022/09/18 12:26:32;;;;;;;3.60;2.50;;;15.70;93.40;;;;;;5080095;28;20486;-69
2022/09/18 12:29:12;;;;;;;2.83;2.43;;;15.40;93.70;;;;;;5081997;28;20475;-68
2022/09/18 12:31:47;;;;;;;5.97;3.20;;;15.20;94.60;;;;;;5086296;28;20490;-68
2022/09/18 12:34:22;;;;;;;4.00;2.43;;;15.00;96.00;;;;;;5084412;28;20476;-68
2022/09/18 12:37:06;;;;;;;7.33;3.23;;;14.90;96.30;;;;;;5083318;28;20439;-68
2022/09/18 12:39:56;;;;;;;5.30;3.17;;;14.70;96.80;;;;;;5081373;28;20442;-68
2022/09/18 12:42:31;;;;;;;7.07;3.17;;;14.50;97.70;;;;;;5080094;28;20506;-69
2022/09/18 12:45:28;;;;;;;8.80;3.17;;;14.40;98.20;;;;;;5077923;28;20806;-70
2022/09/18 12:48:11;;;;;;;5.20;3.90;;;14.30;98.60;;;;;;5071840;28;20473;-70
2022/09/18 12:50:52;;;;;;;3.00;2.77;;;14.20;99.20;;;;;;5077863;28;20443;-69
2022/09/18 12:53:32;;;;;;;9.27;3.33;;;14.20;99.90;;;;;;5080313;28;20472;-69
2022/09/18 12:56:15;;;;;;;6.13;3.40;;;14.20;99.90;;;;;;5081261;28;20439;-70
2022/09/18 12:59:18;;;;;;;7.23;2.53;;;14.30;99.90;;;;;;5080049;28;20985;-70
2022/09/18 13:01:49;;;;;;;5.50;2.90;;;14.20;99.10;;;;;;5081990;28;20443;-70
2022/09/18 13:04:23;;;;;;;4.13;3.13;;;14.20;99.60;;;;;;5080944;28;20478;-70